Terminal Aerodrome Forecast
Issued by NWS

Home | Current Version | Previous Version | Text Only | Print | Product List | Glossary On
Versions: 1 2 3 4 5 6 7 8 9 10 11 12 13
120
FTUS44 KLZK 032320
TAFHOT
TAF
KHOT 032320Z 0400/0424 09008KT 5SM -RA BR SCT008 BKN015 OVC035
      TEMPO 0400/0404 1SM BR BKN008 OVC015
     FM040600 08006KT 4SM BR VCSH BKN008 OVC015
     FM041000 05004KT 2SM BR VCSH OVC008
      TEMPO 0410/0414 1/2SM -DZ FG OVC003
     FM041900 01006KT P6SM BKN007 OVC015=

USA.gov is the U.S. government's official web portal to all federal, state and local government web resources and services.